sensor_id;sensor_type;location;lat;lon;timestamp;P1;durP1;ratioP1;P2;durP2;ratioP2
46365;SDS011;32073;49.166;8.076;2022-11-15T00:02:27;6.28;;;3.50;;
46365;SDS011;32073;49.166;8.076;2022-11-15T00:06:27;6.38;;;3.90;;
46365;SDS011;32073;49.166;8.076;2022-11-15T00:10:28;6.95;;;3.60;;
46365;SDS011;32073;49.166;8.076;2022-11-15T00:14:29;5.57;;;3.72;;
46365;SDS011;32073;49.166;8.076;2022-11-15T00:18:30;5.43;;;3.70;;
46365;SDS011;32073;49.166;8.076;2022-11-15T00:22:31;5.90;;;3.58;;
46365;SDS011;32073;49.166;8.076;2022-11-15T00:26:33;5.40;;;3.35;;
46365;SDS011;32073;49.166;8.076;2022-11-15T00:30:34;5.13;;;3.58;;
46365;SDS011;32073;49.166;8.076;2022-11-15T00:34:34;6.90;;;3.63;;
46365;SDS011;32073;49.166;8.076;2022-11-15T00:38:36;6.28;;;3.78;;
46365;SDS011;32073;49.166;8.076;2022-11-15T00:42:39;6.50;;;4.45;;
46365;SDS011;32073;49.166;8.076;2022-11-15T00:46:40;7.53;;;3.63;;
46365;SDS011;32073;49.166;8.076;2022-11-15T00:50:41;5.35;;;3.60;;
46365;SDS011;32073;49.166;8.076;2022-11-15T00:54:41;8.68;;;4.07;;
46365;SDS011;32073;49.166;8.076;2022-11-15T00:58:42;5.68;;;3.47;;
46365;SDS011;32073;49.166;8.076;2022-11-15T01:02:43;6.82;;;4.18;;
46365;SDS011;32073;49.166;8.076;2022-11-15T01:06:43;7.03;;;4.05;;
46365;SDS011;32073;49.166;8.076;2022-11-15T01:10:44;6.68;;;3.97;;
46365;SDS011;32073;49.166;8.076;2022-11-15T01:14:44;6.43;;;3.67;;
46365;SDS011;32073;49.166;8.076;2022-11-15T01:18:45;7.88;;;4.50;;
46365;SDS011;32073;49.166;8.076;2022-11-15T01:22:46;7.20;;;4.30;;
46365;SDS011;32073;49.166;8.076;2022-11-15T01:26:46;5.82;;;3.53;;
46365;SDS011;32073;49.166;8.076;2022-11-15T01:30:47;7.22;;;4.32;;
46365;SDS011;32073;49.166;8.076;2022-11-15T01:34:48;7.40;;;4.80;;
46365;SDS011;32073;49.166;8.076;2022-11-15T01:38:57;6.47;;;3.97;;
46365;SDS011;32073;49.166;8.076;2022-11-15T01:42:59;7.85;;;4.18;;
46365;SDS011;32073;49.166;8.076;2022-11-15T01:47:20;6.18;;;3.80;;
46365;SDS011;32073;49.166;8.076;2022-11-15T01:51:25;5.32;;;3.30;;
46365;SDS011;32073;49.166;8.076;2022-11-15T01:55:30;6.22;;;4.35;;
46365;SDS011;32073;49.166;8.076;2022-11-15T01:59:30;7.60;;;4.30;;
46365;SDS011;32073;49.166;8.076;2022-11-15T02:03:46;5.13;;;3.42;;
46365;SDS011;32073;49.166;8.076;2022-11-15T02:07:58;7.47;;;4.38;;
46365;SDS011;32073;49.166;8.076;2022-11-15T02:12:00;5.30;;;3.75;;
46365;SDS011;32073;49.166;8.076;2022-11-15T02:20:41;6.93;;;4.35;;
46365;SDS011;32073;49.166;8.076;2022-11-15T02:42:55;5.82;;;3.78;;
46365;SDS011;32073;49.166;8.076;2022-11-15T02:47:20;4.70;;;3.08;;
46365;SDS011;32073;49.166;8.076;2022-11-15T02:51:23;4.68;;;3.25;;
46365;SDS011;32073;49.166;8.076;2022-11-15T03:08:40;6.30;;;3.80;;
46365;SDS011;32073;49.166;8.076;2022-11-15T03:12:55;6.05;;;3.65;;
46365;SDS011;32073;49.166;8.076;2022-11-15T03:17:32;7.43;;;4.18;;
46365;SDS011;32073;49.166;8.076;2022-11-15T03:21:46;7.13;;;4.90;;
46365;SDS011;32073;49.166;8.076;2022-11-15T03:25:49;7.07;;;3.65;;
46365;SDS011;32073;49.166;8.076;2022-11-15T03:29:52;5.25;;;3.67;;
46365;SDS011;32073;49.166;8.076;2022-11-15T03:33:59;6.97;;;4.25;;
46365;SDS011;32073;49.166;8.076;2022-11-15T03:38:19;4.78;;;3.72;;
46365;SDS011;32073;49.166;8.076;2022-11-15T03:42:29;5.38;;;3.90;;
46365;SDS011;32073;49.166;8.076;2022-11-15T03:47:14;6.32;;;3.38;;
46365;SDS011;32073;49.166;8.076;2022-11-15T03:51:20;5.00;;;3.63;;
46365;SDS011;32073;49.166;8.076;2022-11-15T03:55:21;7.30;;;4.13;;
46365;SDS011;32073;49.166;8.076;2022-11-15T03:59:22;5.05;;;3.63;;
46365;SDS011;32073;49.166;8.076;2022-11-15T04:03:23;9.27;;;4.90;;
46365;SDS011;32073;49.166;8.076;2022-11-15T04:07:24;7.38;;;4.57;;
46365;SDS011;32073;49.166;8.076;2022-11-15T04:11:24;9.40;;;5.63;;
46365;SDS011;32073;49.166;8.076;2022-11-15T04:15:25;7.72;;;4.95;;
46365;SDS011;32073;49.166;8.076;2022-11-15T04:19:26;5.75;;;3.92;;
46365;SDS011;32073;49.166;8.076;2022-11-15T04:23:45;5.88;;;3.95;;
46365;SDS011;32073;49.166;8.076;2022-11-15T04:27:51;4.57;;;3.38;;
46365;SDS011;32073;49.166;8.076;2022-11-15T04:31:52;5.75;;;3.78;;
46365;SDS011;32073;49.166;8.076;2022-11-15T04:35:52;7.22;;;3.97;;
46365;SDS011;32073;49.166;8.076;2022-11-15T04:40:12;5.88;;;4.00;;
46365;SDS011;32073;49.166;8.076;2022-11-15T04:44:12;6.22;;;4.03;;
46365;SDS011;32073;49.166;8.076;2022-11-15T04:48:13;6.90;;;4.18;;
46365;SDS011;32073;49.166;8.076;2022-11-15T04:52:13;7.55;;;4.07;;
46365;SDS011;32073;49.166;8.076;2022-11-15T04:56:14;7.35;;;4.32;;
46365;SDS011;32073;49.166;8.076;2022-11-15T05:00:15;6.90;;;4.25;;
46365;SDS011;32073;49.166;8.076;2022-11-15T05:04:17;6.65;;;4.43;;
46365;SDS011;32073;49.166;8.076;2022-11-15T05:08:20;7.20;;;4.03;;
46365;SDS011;32073;49.166;8.076;2022-11-15T05:12:21;6.05;;;4.50;;
46365;SDS011;32073;49.166;8.076;2022-11-15T05:16:21;8.38;;;4.38;;
46365;SDS011;32073;49.166;8.076;2022-11-15T05:20:22;8.75;;;5.18;;
46365;SDS011;32073;49.166;8.076;2022-11-15T05:24:22;8.20;;;5.00;;
46365;SDS011;32073;49.166;8.076;2022-11-15T05:28:23;7.80;;;4.10;;
46365;SDS011;32073;49.166;8.076;2022-11-15T05:32:24;7.55;;;4.07;;
46365;SDS011;32073;49.166;8.076;2022-11-15T05:36:33;8.90;;;4.03;;
46365;SDS011;32073;49.166;8.076;2022-11-15T05:40:40;7.05;;;4.82;;
46365;SDS011;32073;49.166;8.076;2022-11-15T05:44:42;20.33;;;9.52;;
46365;SDS011;32073;49.166;8.076;2022-11-15T05:48:48;36.00;;;18.25;;
46365;SDS011;32073;49.166;8.076;2022-11-15T05:52:51;33.28;;;17.05;;
46365;SDS011;32073;49.166;8.076;2022-11-15T05:56:52;19.85;;;11.13;;
46365;SDS011;32073;49.166;8.076;2022-11-15T06:00:54;22.70;;;12.27;;
46365;SDS011;32073;49.166;8.076;2022-11-15T06:04:55;19.40;;;12.07;;
46365;SDS011;32073;49.166;8.076;2022-11-15T06:08:56;17.38;;;9.75;;
46365;SDS011;32073;49.166;8.076;2022-11-15T06:12:57;15.48;;;8.43;;
46365;SDS011;32073;49.166;8.076;2022-11-15T06:17:03;10.25;;;6.10;;
46365;SDS011;32073;49.166;8.076;2022-11-15T06:21:04;7.40;;;5.00;;
46365;SDS011;32073;49.166;8.076;2022-11-15T06:25:05;9.00;;;5.00;;
46365;SDS011;32073;49.166;8.076;2022-11-15T06:29:06;6.00;;;4.35;;
46365;SDS011;32073;49.166;8.076;2022-11-15T06:33:07;7.55;;;4.38;;
46365;SDS011;32073;49.166;8.076;2022-11-15T06:37:08;16.67;;;5.13;;
46365;SDS011;32073;49.166;8.076;2022-11-15T06:41:10;8.27;;;4.68;;
46365;SDS011;32073;49.166;8.076;2022-11-15T06:45:12;6.93;;;5.18;;
46365;SDS011;32073;49.166;8.076;2022-11-15T06:49:13;7.13;;;4.90;;
46365;SDS011;32073;49.166;8.076;2022-11-15T06:53:14;8.32;;;5.05;;
46365;SDS011;32073;49.166;8.076;2022-11-15T06:57:14;8.68;;;5.15;;
46365;SDS011;32073;49.166;8.076;2022-11-15T07:01:15;7.97;;;4.97;;
46365;SDS011;32073;49.166;8.076;2022-11-15T07:05:16;8.65;;;5.57;;
46365;SDS011;32073;49.166;8.076;2022-11-15T07:09:17;6.88;;;5.15;;
46365;SDS011;32073;49.166;8.076;2022-11-15T07:13:18;6.72;;;4.55;;
46365;SDS011;32073;49.166;8.076;2022-11-15T07:17:18;8.85;;;6.22;;
46365;SDS011;32073;49.166;8.076;2022-11-15T07:21:19;8.10;;;6.30;;
46365;SDS011;32073;49.166;8.076;2022-11-15T07:25:19;7.18;;;4.65;;
46365;SDS011;32073;49.166;8.076;2022-11-15T07:29:20;7.50;;;5.45;;
46365;SDS011;32073;49.166;8.076;2022-11-15T07:33:21;5.93;;;4.20;;
46365;SDS011;32073;49.166;8.076;2022-11-15T07:37:21;6.95;;;5.18;;
46365;SDS011;32073;49.166;8.076;2022-11-15T07:41:22;9.48;;;5.68;;
46365;SDS011;32073;49.166;8.076;2022-11-15T07:45:23;9.82;;;4.93;;
46365;SDS011;32073;49.166;8.076;2022-11-15T07:49:27;11.13;;;6.90;;
46365;SDS011;32073;49.166;8.076;2022-11-15T07:53:28;6.10;;;4.63;;
46365;SDS011;32073;49.166;8.076;2022-11-15T07:57:29;5.55;;;3.85;;
46365;SDS011;32073;49.166;8.076;2022-11-15T08:01:29;7.80;;;4.15;;
46365;SDS011;32073;49.166;8.076;2022-11-15T08:05:30;14.43;;;5.97;;
46365;SDS011;32073;49.166;8.076;2022-11-15T08:09:32;23.85;;;10.35;;
46365;SDS011;32073;49.166;8.076;2022-11-15T08:13:33;12.70;;;5.45;;
46365;SDS011;32073;49.166;8.076;2022-11-15T08:17:33;7.15;;;4.30;;
46365;SDS011;32073;49.166;8.076;2022-11-15T08:21:34;5.35;;;3.95;;
46365;SDS011;32073;49.166;8.076;2022-11-15T08:25:35;4.38;;;3.35;;
46365;SDS011;32073;49.166;8.076;2022-11-15T08:29:35;4.70;;;2.78;;
46365;SDS011;32073;49.166;8.076;2022-11-15T08:33:36;8.18;;;5.22;;
46365;SDS011;32073;49.166;8.076;2022-11-15T08:37:37;5.28;;;3.40;;
46365;SDS011;32073;49.166;8.076;2022-11-15T08:41:37;7.43;;;5.10;;
46365;SDS011;32073;49.166;8.076;2022-11-15T08:45:38;23.45;;;13.77;;
46365;SDS011;32073;49.166;8.076;2022-11-15T08:49:39;9.93;;;6.47;;
46365;SDS011;32073;49.166;8.076;2022-11-15T08:53:41;18.20;;;9.10;;
46365;SDS011;32073;49.166;8.076;2022-11-15T08:57:41;8.35;;;5.25;;
46365;SDS011;32073;49.166;8.076;2022-11-15T09:01:42;6.28;;;4.10;;
46365;SDS011;32073;49.166;8.076;2022-11-15T09:05:43;5.30;;;3.75;;
46365;SDS011;32073;49.166;8.076;2022-11-15T09:09:43;4.45;;;3.42;;
46365;SDS011;32073;49.166;8.076;2022-11-15T09:13:44;7.00;;;4.97;;
46365;SDS011;32073;49.166;8.076;2022-11-15T09:17:45;8.13;;;5.68;;
46365;SDS011;32073;49.166;8.076;2022-11-15T09:21:45;7.40;;;5.50;;
46365;SDS011;32073;49.166;8.076;2022-11-15T09:25:46;6.88;;;5.05;;
46365;SDS011;32073;49.166;8.076;2022-11-15T09:29:47;10.55;;;5.32;;
46365;SDS011;32073;49.166;8.076;2022-11-15T09:33:48;8.70;;;4.63;;
46365;SDS011;32073;49.166;8.076;2022-11-15T09:37:48;8.23;;;4.88;;
46365;SDS011;32073;49.166;8.076;2022-11-15T09:42:08;8.52;;;4.63;;
46365;SDS011;32073;49.166;8.076;2022-11-15T09:51:20;5.35;;;4.35;;
46365;SDS011;32073;49.166;8.076;2022-11-15T09:55:32;5.28;;;3.47;;
46365;SDS011;32073;49.166;8.076;2022-11-15T10:04:10;7.32;;;4.13;;
46365;SDS011;32073;49.166;8.076;2022-11-15T10:13:01;5.28;;;3.60;;
46365;SDS011;32073;49.166;8.076;2022-11-15T10:17:06;4.32;;;3.35;;
46365;SDS011;32073;49.166;8.076;2022-11-15T10:25:58;5.90;;;3.58;;
46365;SDS011;32073;49.166;8.076;2022-11-15T10:30:00;5.00;;;3.35;;
46365;SDS011;32073;49.166;8.076;2022-11-15T10:38:14;5.75;;;3.03;;
46365;SDS011;32073;49.166;8.076;2022-11-15T10:42:16;4.05;;;3.05;;
46365;SDS011;32073;49.166;8.076;2022-11-15T10:46:26;3.22;;;2.65;;
46365;SDS011;32073;49.166;8.076;2022-11-15T10:50:30;4.55;;;2.80;;
46365;SDS011;32073;49.166;8.076;2022-11-15T10:58:54;4.72;;;2.65;;
46365;SDS011;32073;49.166;8.076;2022-11-15T11:03:02;7.28;;;4.55;;
46365;SDS011;32073;49.166;8.076;2022-11-15T11:07:20;12.07;;;8.68;;
46365;SDS011;32073;49.166;8.076;2022-11-15T11:11:46;4.22;;;3.28;;
46365;SDS011;32073;49.166;8.076;2022-11-15T11:15:51;4.50;;;2.83;;
46365;SDS011;32073;49.166;8.076;2022-11-15T11:25:04;12.80;;;9.27;;
46365;SDS011;32073;49.166;8.076;2022-11-15T11:29:39;8.65;;;6.72;;
46365;SDS011;32073;49.166;8.076;2022-11-15T11:34:04;7.85;;;5.03;;
46365;SDS011;32073;49.166;8.076;2022-11-15T11:38:15;12.88;;;7.85;;
46365;SDS011;32073;49.166;8.076;2022-11-15T11:42:52;26.10;;;15.13;;
46365;SDS011;32073;49.166;8.076;2022-11-15T11:47:30;8.13;;;4.50;;
46365;SDS011;32073;49.166;8.076;2022-11-15T12:04:28;3.95;;;2.58;;
46365;SDS011;32073;49.166;8.076;2022-11-15T12:08:45;3.10;;;2.10;;
46365;SDS011;32073;49.166;8.076;2022-11-15T12:12:55;7.38;;;4.05;;
46365;SDS011;32073;49.166;8.076;2022-11-15T12:17:03;5.75;;;2.90;;
46365;SDS011;32073;49.166;8.076;2022-11-15T12:21:07;25.80;;;10.68;;
46365;SDS011;32073;49.166;8.076;2022-11-15T12:25:18;24.15;;;14.00;;
46365;SDS011;32073;49.166;8.076;2022-11-15T12:29:36;5.95;;;3.92;;
46365;SDS011;32073;49.166;8.076;2022-11-15T12:33:46;5.43;;;4.03;;
46365;SDS011;32073;49.166;8.076;2022-11-15T12:37:50;3.85;;;2.42;;
46365;SDS011;32073;49.166;8.076;2022-11-15T12:45:56;4.53;;;2.05;;
46365;SDS011;32073;49.166;8.076;2022-11-15T12:50:04;2.90;;;2.00;;
46365;SDS011;32073;49.166;8.076;2022-11-15T12:59:07;2.83;;;2.00;;
46365;SDS011;32073;49.166;8.076;2022-11-15T13:02:45;2.53;;;1.80;;
46365;SDS011;32073;49.166;8.076;2022-11-15T13:06:58;1.50;;;1.33;;
46365;SDS011;32073;49.166;8.076;2022-11-15T13:11:41;2.22;;;1.63;;
46365;SDS011;32073;49.166;8.076;2022-11-15T13:15:56;2.63;;;1.90;;
46365;SDS011;32073;49.166;8.076;2022-11-15T13:24:10;4.03;;;2.40;;
46365;SDS011;32073;49.166;8.076;2022-11-15T13:32:17;4.50;;;1.90;;
46365;SDS011;32073;49.166;8.076;2022-11-15T13:40:29;4.18;;;1.60;;
46365;SDS011;32073;49.166;8.076;2022-11-15T13:44:35;3.15;;;2.17;;
46365;SDS011;32073;49.166;8.076;2022-11-15T13:48:36;1.63;;;1.10;;
46365;SDS011;32073;49.166;8.076;2022-11-15T13:52:37;1.58;;;1.30;;
46365;SDS011;32073;49.166;8.076;2022-11-15T13:56:47;1.92;;;1.27;;
46365;SDS011;32073;49.166;8.076;2022-11-15T14:01:00;3.42;;;1.60;;
46365;SDS011;32073;49.166;8.076;2022-11-15T14:05:20;2.58;;;1.48;;
46365;SDS011;32073;49.166;8.076;2022-11-15T14:09:36;3.53;;;1.70;;
46365;SDS011;32073;49.166;8.076;2022-11-15T14:13:40;2.17;;;1.35;;
46365;SDS011;32073;49.166;8.076;2022-11-15T14:17:41;3.38;;;1.63;;
46365;SDS011;32073;49.166;8.076;2022-11-15T14:26:26;1.60;;;1.30;;
46365;SDS011;32073;49.166;8.076;2022-11-15T14:30:33;2.17;;;1.50;;
46365;SDS011;32073;49.166;8.076;2022-11-15T14:34:34;2.05;;;1.27;;
46365;SDS011;32073;49.166;8.076;2022-11-15T14:38:34;2.10;;;1.65;;
46365;SDS011;32073;49.166;8.076;2022-11-15T14:42:35;1.77;;;1.50;;
46365;SDS011;32073;49.166;8.076;2022-11-15T14:46:36;2.83;;;1.30;;
46365;SDS011;32073;49.166;8.076;2022-11-15T14:50:36;2.67;;;1.67;;
46365;SDS011;32073;49.166;8.076;2022-11-15T14:54:37;1.77;;;1.58;;
46365;SDS011;32073;49.166;8.076;2022-11-15T14:58:38;2.70;;;1.88;;
46365;SDS011;32073;49.166;8.076;2022-11-15T15:02:39;3.55;;;2.47;;
46365;SDS011;32073;49.166;8.076;2022-11-15T15:06:42;4.32;;;3.05;;
46365;SDS011;32073;49.166;8.076;2022-11-15T15:10:43;3.67;;;2.67;;
46365;SDS011;32073;49.166;8.076;2022-11-15T15:14:45;4.32;;;2.60;;
46365;SDS011;32073;49.166;8.076;2022-11-15T15:18:49;4.25;;;3.15;;
46365;SDS011;32073;49.166;8.076;2022-11-15T15:22:50;3.83;;;2.42;;
46365;SDS011;32073;49.166;8.076;2022-11-15T15:26:50;3.70;;;2.08;;
46365;SDS011;32073;49.166;8.076;2022-11-15T15:30:51;2.63;;;2.30;;
46365;SDS011;32073;49.166;8.076;2022-11-15T15:34:52;2.20;;;1.63;;
46365;SDS011;32073;49.166;8.076;2022-11-15T15:38:53;2.80;;;2.20;;
46365;SDS011;32073;49.166;8.076;2022-11-15T15:42:54;4.32;;;2.92;;
46365;SDS011;32073;49.166;8.076;2022-11-15T15:46:55;5.45;;;3.38;;
46365;SDS011;32073;49.166;8.076;2022-11-15T15:50:57;4.15;;;3.03;;
46365;SDS011;32073;49.166;8.076;2022-11-15T15:54:58;4.00;;;2.42;;
46365;SDS011;32073;49.166;8.076;2022-11-15T15:58:59;7.60;;;4.97;;
46365;SDS011;32073;49.166;8.076;2022-11-15T16:02:59;10.55;;;6.07;;
46365;SDS011;32073;49.166;8.076;2022-11-15T16:07:00;8.45;;;4.63;;
46365;SDS011;32073;49.166;8.076;2022-11-15T16:11:02;7.30;;;4.53;;
46365;SDS011;32073;49.166;8.076;2022-11-15T16:15:07;5.55;;;3.85;;
46365;SDS011;32073;49.166;8.076;2022-11-15T16:19:08;7.97;;;6.70;;
46365;SDS011;32073;49.166;8.076;2022-11-15T16:23:15;6.15;;;4.50;;
46365;SDS011;32073;49.166;8.076;2022-11-15T16:27:21;5.88;;;4.10;;
46365;SDS011;32073;49.166;8.076;2022-11-15T16:31:22;7.00;;;4.45;;
46365;SDS011;32073;49.166;8.076;2022-11-15T16:35:22;6.00;;;3.92;;
46365;SDS011;32073;49.166;8.076;2022-11-15T16:39:24;5.13;;;3.65;;
46365;SDS011;32073;49.166;8.076;2022-11-15T16:43:25;7.28;;;4.82;;
46365;SDS011;32073;49.166;8.076;2022-11-15T16:47:25;6.07;;;4.47;;
46365;SDS011;32073;49.166;8.076;2022-11-15T16:51:26;5.60;;;3.88;;
46365;SDS011;32073;49.166;8.076;2022-11-15T16:55:28;4.80;;;3.47;;
46365;SDS011;32073;49.166;8.076;2022-11-15T16:59:29;6.60;;;3.10;;
46365;SDS011;32073;49.166;8.076;2022-11-15T17:03:32;4.60;;;2.95;;
46365;SDS011;32073;49.166;8.076;2022-11-15T17:07:33;6.72;;;3.35;;
46365;SDS011;32073;49.166;8.076;2022-11-15T17:11:33;3.47;;;2.75;;
46365;SDS011;32073;49.166;8.076;2022-11-15T17:15:34;5.50;;;3.45;;
46365;SDS011;32073;49.166;8.076;2022-11-15T17:19:34;31.90;;;14.55;;
46365;SDS011;32073;49.166;8.076;2022-11-15T17:23:35;12.02;;;6.43;;
46365;SDS011;32073;49.166;8.076;2022-11-15T17:27:36;9.82;;;5.20;;
46365;SDS011;32073;49.166;8.076;2022-11-15T17:31:37;9.02;;;5.13;;
46365;SDS011;32073;49.166;8.076;2022-11-15T17:35:38;9.65;;;4.50;;
46365;SDS011;32073;49.166;8.076;2022-11-15T17:39:38;7.65;;;5.05;;
46365;SDS011;32073;49.166;8.076;2022-11-15T17:43:39;11.80;;;7.10;;
46365;SDS011;32073;49.166;8.076;2022-11-15T17:47:40;9.35;;;6.07;;
46365;SDS011;32073;49.166;8.076;2022-11-15T17:51:41;6.90;;;4.55;;
46365;SDS011;32073;49.166;8.076;2022-11-15T17:55:42;8.48;;;5.25;;
46365;SDS011;32073;49.166;8.076;2022-11-15T17:59:42;7.95;;;4.40;;
46365;SDS011;32073;49.166;8.076;2022-11-15T18:03:43;18.77;;;9.07;;
46365;SDS011;32073;49.166;8.076;2022-11-15T18:07:44;11.52;;;6.63;;
46365;SDS011;32073;49.166;8.076;2022-11-15T18:11:44;9.20;;;6.57;;
46365;SDS011;32073;49.166;8.076;2022-11-15T18:15:53;7.78;;;5.20;;
46365;SDS011;32073;49.166;8.076;2022-11-15T18:19:55;8.27;;;4.97;;
46365;SDS011;32073;49.166;8.076;2022-11-15T18:23:57;9.20;;;6.13;;
46365;SDS011;32073;49.166;8.076;2022-11-15T18:27:59;6.75;;;4.30;;
46365;SDS011;32073;49.166;8.076;2022-11-15T18:32:00;7.47;;;5.30;;
46365;SDS011;32073;49.166;8.076;2022-11-15T18:36:04;4.45;;;3.45;;
46365;SDS011;32073;49.166;8.076;2022-11-15T18:40:07;4.72;;;3.25;;
46365;SDS011;32073;49.166;8.076;2022-11-15T18:44:16;6.53;;;3.97;;
46365;SDS011;32073;49.166;8.076;2022-11-15T18:48:17;16.98;;;8.32;;
46365;SDS011;32073;49.166;8.076;2022-11-15T18:52:17;36.78;;;17.00;;
46365;SDS011;32073;49.166;8.076;2022-11-15T18:56:22;17.80;;;9.85;;
46365;SDS011;32073;49.166;8.076;2022-11-15T19:00:24;8.77;;;4.88;;
46365;SDS011;32073;49.166;8.076;2022-11-15T19:04:25;13.43;;;8.25;;
46365;SDS011;32073;49.166;8.076;2022-11-15T19:08:25;13.90;;;8.98;;
46365;SDS011;32073;49.166;8.076;2022-11-15T19:12:27;5.18;;;3.92;;
46365;SDS011;32073;49.166;8.076;2022-11-15T19:16:27;5.60;;;3.78;;
46365;SDS011;32073;49.166;8.076;2022-11-15T19:20:33;6.95;;;2.95;;
46365;SDS011;32073;49.166;8.076;2022-11-15T19:24:35;3.13;;;2.17;;
46365;SDS011;32073;49.166;8.076;2022-11-15T19:28:35;3.03;;;2.47;;
46365;SDS011;32073;49.166;8.076;2022-11-15T19:32:36;3.53;;;2.78;;
46365;SDS011;32073;49.166;8.076;2022-11-15T19:36:40;4.55;;;2.38;;
46365;SDS011;32073;49.166;8.076;2022-11-15T19:40:43;3.97;;;2.97;;
46365;SDS011;32073;49.166;8.076;2022-11-15T19:44:43;6.43;;;3.25;;
46365;SDS011;32073;49.166;8.076;2022-11-15T19:48:44;3.25;;;2.60;;
46365;SDS011;32073;49.166;8.076;2022-11-15T19:52:45;6.35;;;4.97;;
46365;SDS011;32073;49.166;8.076;2022-11-15T19:56:46;5.65;;;3.15;;
46365;SDS011;32073;49.166;8.076;2022-11-15T20:00:47;3.85;;;2.70;;
46365;SDS011;32073;49.166;8.076;2022-11-15T20:04:47;4.95;;;2.80;;
46365;SDS011;32073;49.166;8.076;2022-11-15T20:08:48;5.85;;;3.80;;
46365;SDS011;32073;49.166;8.076;2022-11-15T20:12:49;5.10;;;3.25;;
46365;SDS011;32073;49.166;8.076;2022-11-15T20:16:50;4.28;;;3.38;;
46365;SDS011;32073;49.166;8.076;2022-11-15T20:20:51;3.58;;;2.85;;
46365;SDS011;32073;49.166;8.076;2022-11-15T20:24:52;2.78;;;2.22;;
46365;SDS011;32073;49.166;8.076;2022-11-15T20:28:52;3.88;;;2.45;;
46365;SDS011;32073;49.166;8.076;2022-11-15T20:32:59;3.55;;;2.60;;
46365;SDS011;32073;49.166;8.076;2022-11-15T20:37:00;4.95;;;3.08;;
46365;SDS011;32073;49.166;8.076;2022-11-15T20:41:01;4.00;;;2.85;;
46365;SDS011;32073;49.166;8.076;2022-11-15T20:45:02;5.43;;;4.05;;
46365;SDS011;32073;49.166;8.076;2022-11-15T20:49:03;3.70;;;3.25;;
46365;SDS011;32073;49.166;8.076;2022-11-15T20:53:05;3.20;;;2.80;;
46365;SDS011;32073;49.166;8.076;2022-11-15T20:57:06;4.00;;;2.33;;
46365;SDS011;32073;49.166;8.076;2022-11-15T21:01:09;5.20;;;2.35;;
46365;SDS011;32073;49.166;8.076;2022-11-15T21:05:15;23.23;;;12.52;;
46365;SDS011;32073;49.166;8.076;2022-11-15T21:09:15;9.95;;;5.90;;
46365;SDS011;32073;49.166;8.076;2022-11-15T21:13:35;12.05;;;7.63;;
46365;SDS011;32073;49.166;8.076;2022-11-15T21:17:36;5.55;;;3.83;;
46365;SDS011;32073;49.166;8.076;2022-11-15T21:21:37;5.88;;;2.75;;
46365;SDS011;32073;49.166;8.076;2022-11-15T21:25:38;4.00;;;2.88;;
46365;SDS011;32073;49.166;8.076;2022-11-15T21:29:39;5.25;;;2.72;;
46365;SDS011;32073;49.166;8.076;2022-11-15T21:33:39;3.22;;;2.25;;
46365;SDS011;32073;49.166;8.076;2022-11-15T21:37:40;3.17;;;2.30;;
46365;SDS011;32073;49.166;8.076;2022-11-15T21:41:41;5.45;;;3.28;;
46365;SDS011;32073;49.166;8.076;2022-11-15T21:45:42;3.83;;;2.13;;
46365;SDS011;32073;49.166;8.076;2022-11-15T21:49:48;4.50;;;2.50;;
46365;SDS011;32073;49.166;8.076;2022-11-15T21:53:52;5.20;;;3.25;;
46365;SDS011;32073;49.166;8.076;2022-11-15T21:57:54;5.03;;;3.38;;
46365;SDS011;32073;49.166;8.076;2022-11-15T22:01:55;9.30;;;3.92;;
46365;SDS011;32073;49.166;8.076;2022-11-15T22:06:28;4.13;;;2.40;;
46365;SDS011;32073;49.166;8.076;2022-11-15T22:10:28;4.28;;;2.83;;
46365;SDS011;32073;49.166;8.076;2022-11-15T22:14:29;4.22;;;2.33;;
46365;SDS011;32073;49.166;8.076;2022-11-15T22:18:30;5.63;;;2.88;;
46365;SDS011;32073;49.166;8.076;2022-11-15T22:22:30;3.33;;;2.30;;
46365;SDS011;32073;49.166;8.076;2022-11-15T22:26:31;2.88;;;2.33;;
46365;SDS011;32073;49.166;8.076;2022-11-15T22:30:32;3.92;;;2.40;;
46365;SDS011;32073;49.166;8.076;2022-11-15T22:34:33;3.38;;;2.13;;
46365;SDS011;32073;49.166;8.076;2022-11-15T22:38:33;2.83;;;2.20;;
46365;SDS011;32073;49.166;8.076;2022-11-15T22:42:34;4.28;;;2.80;;
46365;SDS011;32073;49.166;8.076;2022-11-15T22:46:35;4.82;;;2.75;;
46365;SDS011;32073;49.166;8.076;2022-11-15T22:50:36;7.13;;;4.03;;
46365;SDS011;32073;49.166;8.076;2022-11-15T22:54:36;5.80;;;2.60;;
46365;SDS011;32073;49.166;8.076;2022-11-15T22:58:38;5.57;;;3.17;;
46365;SDS011;32073;49.166;8.076;2022-11-15T23:02:39;5.32;;;3.38;;
46365;SDS011;32073;49.166;8.076;2022-11-15T23:06:40;5.38;;;3.35;;
46365;SDS011;32073;49.166;8.076;2022-11-15T23:10:40;4.22;;;2.80;;
46365;SDS011;32073;49.166;8.076;2022-11-15T23:15:00;4.47;;;3.10;;
46365;SDS011;32073;49.166;8.076;2022-11-15T23:19:04;4.80;;;3.22;;
46365;SDS011;32073;49.166;8.076;2022-11-15T23:23:07;4.90;;;3.50;;
46365;SDS011;32073;49.166;8.076;2022-11-15T23:27:08;8.20;;;3.78;;
46365;SDS011;32073;49.166;8.076;2022-11-15T23:31:09;4.65;;;3.65;;
46365;SDS011;32073;49.166;8.076;2022-11-15T23:35:32;5.40;;;3.38;;
46365;SDS011;32073;49.166;8.076;2022-11-15T23:39:33;5.03;;;3.42;;
46365;SDS011;32073;49.166;8.076;2022-11-15T23:43:33;5.78;;;4.05;;
46365;SDS011;32073;49.166;8.076;2022-11-15T23:47:34;6.10;;;4.32;;
46365;SDS011;32073;49.166;8.076;2022-11-15T23:51:35;4.43;;;3.35;;
46365;SDS011;32073;49.166;8.076;2022-11-15T23:55:36;4.75;;;3.45;;
46365;SDS011;32073;49.166;8.076;2022-11-15T23:59:37;5.40;;;3.70;;
